createdAt,value
2017-09-27T00:00:48.795Z,1017.66
2017-09-27T00:01:48.774Z,1017.74
2017-09-27T00:02:48.748Z,1017.68
2017-09-27T00:03:48.730Z,1017.66
2017-09-27T00:04:48.703Z,1017.68
2017-09-27T00:05:48.683Z,1017.71
2017-09-27T00:06:48.661Z,1017.71
2017-09-27T00:07:48.636Z,1017.72
2017-09-27T00:08:48.615Z,1017.71
2017-09-27T00:09:48.592Z,1017.72
2017-09-27T00:10:48.569Z,1017.66
2017-09-27T00:11:48.547Z,1017.64
2017-09-27T00:12:48.526Z,1017.64
2017-09-27T00:13:48.503Z,1017.63
2017-09-27T00:14:48.482Z,1017.64
2017-09-27T00:15:48.457Z,1017.64
2017-09-27T00:16:48.433Z,1017.63
2017-09-27T00:17:48.412Z,1017.6
2017-09-27T00:18:48.398Z,1017.6
2017-09-27T00:19:48.370Z,1017.57
2017-09-27T00:20:48.344Z,1017.6
2017-09-27T00:21:48.322Z,1017.59
2017-09-27T00:22:48.298Z,1017.61
2017-09-27T00:23:48.276Z,1017.58
2017-09-27T00:24:48.257Z,1017.59
2017-09-27T00:25:48.232Z,1017.61
2017-09-27T00:26:48.209Z,1017.61
2017-09-27T00:27:48.184Z,1017.58
2017-09-27T00:28:48.163Z,1017.6
2017-09-27T00:29:48.140Z,1017.6
2017-09-27T00:30:48.118Z,1017.63
2017-09-27T00:31:48.097Z,1017.57
2017-09-27T00:32:48.076Z,1017.56
2017-09-27T00:33:48.056Z,1017.54
2017-09-27T00:34:48.028Z,1017.6
2017-09-27T00:35:48.014Z,1017.55
2017-09-27T00:36:47.985Z,1017.59
2017-09-27T00:37:47.964Z,1017.56
2017-09-27T00:38:47.941Z,1017.58
2017-09-27T00:39:47.923Z,1017.58
2017-09-27T00:40:47.895Z,1017.54
2017-09-27T00:41:47.871Z,1017.56
2017-09-27T00:42:47.852Z,1017.57
2017-09-27T00:43:47.827Z,1017.56
2017-09-27T00:44:47.802Z,1017.55
2017-09-27T00:45:47.780Z,1017.55
2017-09-27T00:46:47.759Z,1017.55
2017-09-27T00:47:47.738Z,1017.52
2017-09-27T00:48:47.716Z,1017.57
2017-09-27T00:49:47.693Z,1017.57
2017-09-27T00:50:47.721Z,1017.54
2017-09-27T00:51:47.649Z,1017.54
2017-09-27T00:52:47.624Z,1017.51
2017-09-27T00:53:47.603Z,1017.53
2017-09-27T00:54:47.580Z,1017.49
2017-09-27T00:55:47.559Z,1017.47
2017-09-27T00:56:47.537Z,1017.46
2017-09-27T00:57:47.512Z,1017.47
2017-09-27T00:58:47.491Z,1017.43
2017-09-27T00:59:47.467Z,1017.45
2017-09-27T01:00:47.443Z,1017.43
2017-09-27T01:01:47.429Z,1017.43
2017-09-27T01:02:47.400Z,1017.38
2017-09-27T01:03:47.376Z,1017.38
2017-09-27T01:04:47.354Z,1017.4
2017-09-27T01:05:47.336Z,1017.4
2017-09-27T01:06:47.311Z,1017.34
2017-09-27T01:07:47.288Z,1017.34
2017-09-27T01:08:47.267Z,1017.34
2017-09-27T01:09:47.246Z,1017.33
2017-09-27T01:10:47.224Z,1017.33
2017-09-27T01:11:47.197Z,1017.32
2017-09-27T01:12:47.176Z,1017.34
2017-09-27T01:13:47.153Z,1017.35
2017-09-27T01:14:47.131Z,1017.29
2017-09-27T01:15:47.110Z,1017.3
2017-09-27T01:16:47.085Z,1017.29
2017-09-27T01:17:47.064Z,1017.24
2017-09-27T01:18:47.040Z,1017.31
2017-09-27T01:19:47.021Z,1017.25
2017-09-27T01:20:46.998Z,1017.26
2017-09-27T01:21:46.972Z,1017.23
2017-09-27T01:22:46.954Z,1017.23
2017-09-27T01:23:46.929Z,1017.2
2017-09-27T01:24:46.906Z,1017.2
2017-09-27T01:25:46.884Z,1017.18
2017-09-27T01:26:46.864Z,1017.19
2017-09-27T01:27:46.840Z,1017.21
2017-09-27T01:28:46.816Z,1017.2
2017-09-27T01:29:46.793Z,1017.19
2017-09-27T01:30:46.772Z,1017.23
2017-09-27T01:31:46.749Z,1017.18
2017-09-27T01:32:46.726Z,1017.22
2017-09-27T01:33:46.704Z,1017.22
2017-09-27T01:34:46.683Z,1017.2
2017-09-27T01:35:46.661Z,1017.2
2017-09-27T01:36:46.636Z,1017.21
2017-09-27T01:37:46.617Z,1017.18
2017-09-27T01:38:46.592Z,1017.21
2017-09-27T01:39:46.571Z,1017.2
2017-09-27T01:40:46.550Z,1017.21
2017-09-27T01:41:46.525Z,1017.17
2017-09-27T01:42:46.503Z,1017.19
2017-09-27T01:43:46.478Z,1017.23
2017-09-27T01:44:46.457Z,1017.19
2017-09-27T01:45:46.438Z,1017.17
2017-09-27T01:46:46.413Z,1017.18
2017-09-27T01:47:46.394Z,1017.18
2017-09-27T01:48:46.367Z,1017.21
2017-09-27T01:49:46.347Z,1017.16
2017-09-27T01:50:46.324Z,1017.2
2017-09-27T01:51:46.303Z,1017.19
2017-09-27T01:52:46.280Z,1017.17
2017-09-27T01:53:46.255Z,1017.22
2017-09-27T01:54:46.232Z,1017.15
2017-09-27T01:55:46.210Z,1017.15
2017-09-27T01:56:46.189Z,1017.16
2017-09-27T01:57:46.217Z,1017.16
2017-09-27T01:58:46.142Z,1017.18
2017-09-27T01:59:46.120Z,1017.15
2017-09-27T02:00:46.147Z,1017.17
2017-09-27T02:01:46.074Z,1017.17
2017-09-27T02:02:46.052Z,1017.15
2017-09-27T02:03:46.030Z,1017.25
2017-09-27T02:04:46.007Z,1017.18
2017-09-27T02:05:45.983Z,1017.13
2017-09-27T02:06:45.963Z,1017.15
2017-09-27T02:07:45.943Z,1017.15
2017-09-27T02:08:45.916Z,1017.13
2017-09-27T02:09:45.894Z,1017.13
2017-09-27T02:10:45.871Z,1017.14
2017-09-27T02:11:45.850Z,1017.15
2017-09-27T02:12:45.879Z,1017.12
2017-09-27T02:13:45.807Z,1017.17
2017-09-27T02:14:45.833Z,1017.13
2017-09-27T02:15:45.758Z,1017.14
2017-09-27T02:16:45.736Z,1017.19
2017-09-27T02:17:45.713Z,1017.16
2017-09-27T02:18:45.695Z,1017.21
2017-09-27T02:19:45.670Z,1017.19
2017-09-27T02:20:45.650Z,1017.2
2017-09-27T02:21:45.626Z,1017.18
2017-09-27T02:22:45.601Z,1017.17
2017-09-27T02:23:45.581Z,1017.15
2017-09-27T02:24:45.552Z,1017.22
2017-09-27T02:25:45.536Z,1017.18
2017-09-27T02:26:45.517Z,1017.17
2017-09-27T02:27:45.491Z,1017.17
2017-09-27T02:28:45.469Z,1017.22
2017-09-27T02:29:45.446Z,1017.18
2017-09-27T02:30:45.425Z,1017.22
2017-09-27T02:31:45.402Z,1017.17
2017-09-27T02:32:45.378Z,1017.21
2017-09-27T02:33:45.357Z,1017.17
2017-09-27T02:34:45.334Z,1017.2
2017-09-27T02:35:45.311Z,1017.16
2017-09-27T02:36:45.291Z,1017.15
2017-09-27T02:37:45.266Z,1017.13
2017-09-27T02:38:45.248Z,1017.13
2017-09-27T02:39:45.222Z,1017.13
2017-09-27T02:40:45.201Z,1017.14
2017-09-27T02:41:45.184Z,1017.15
2017-09-27T02:42:45.160Z,1017.15
2017-09-27T02:43:45.135Z,1017.14
2017-09-27T02:44:45.114Z,1017.19
2017-09-27T02:45:45.088Z,1017.16
2017-09-27T02:46:45.068Z,1017.15
2017-09-27T02:47:45.042Z,1017.19
2017-09-27T02:48:45.025Z,1017.17
2017-09-27T02:49:44.998Z,1017.17
2017-09-27T02:50:44.977Z,1017.2
2017-09-27T02:51:44.956Z,1017.14
2017-09-27T02:52:44.982Z,1017.19
2017-09-27T02:53:44.915Z,1017.15
2017-09-27T02:54:44.890Z,1017.13
2017-09-27T02:55:44.865Z,1017.18
2017-09-27T02:56:44.842Z,1017.19
2017-09-27T02:57:44.818Z,1017.18
2017-09-27T02:58:44.796Z,1017.16
2017-09-27T02:59:44.772Z,1017.18
2017-09-27T03:00:44.751Z,1017.18
2017-09-27T03:01:44.729Z,1017.15
2017-09-27T03:02:44.708Z,1017.17
2017-09-27T03:03:44.684Z,1017.23
2017-09-27T03:04:44.662Z,1017.23
2017-09-27T03:05:44.641Z,1017.2
2017-09-27T03:06:44.617Z,1017.22
2017-09-27T03:07:44.597Z,1017.18
2017-09-27T03:08:44.572Z,1017.2
2017-09-27T03:09:44.551Z,1017.26
2017-09-27T03:10:44.578Z,1017.2
2017-09-27T03:11:44.500Z,1017.22
2017-09-27T03:12:44.483Z,1017.24
2017-09-27T03:13:44.460Z,1017.23
2017-09-27T03:14:44.434Z,1017.25
2017-09-27T03:15:44.416Z,1017.23
2017-09-27T03:16:44.392Z,1017.27
2017-09-27T03:17:44.375Z,1017.27
2017-09-27T03:18:44.350Z,1017.24
2017-09-27T03:19:44.327Z,1017.31
2017-09-27T03:20:44.304Z,1017.29
2017-09-27T03:21:44.283Z,1017.31
2017-09-27T03:22:44.261Z,1017.27
2017-09-27T03:23:44.246Z,1017.3
2017-09-27T03:24:44.215Z,1017.31
2017-09-27T03:25:44.194Z,1017.31
2017-09-27T03:26:44.172Z,1017.31
2017-09-27T03:27:44.149Z,1017.34
2017-09-27T03:28:44.126Z,1017.37
2017-09-27T03:29:44.107Z,1017.36
2017-09-27T03:30:44.082Z,1017.34
2017-09-27T03:31:44.061Z,1017.36
2017-09-27T03:32:44.036Z,1017.36
2017-09-27T03:33:44.018Z,1017.34
2017-09-27T03:34:43.990Z,1017.35
2017-09-27T03:35:43.972Z,1017.34
2017-09-27T03:36:43.946Z,1017.35
2017-09-27T03:37:43.925Z,1017.35
2017-09-27T03:38:43.903Z,1017.35
2017-09-27T03:39:43.880Z,1017.34
2017-09-27T03:40:43.855Z,1017.32
2017-09-27T03:41:43.836Z,1017.31
2017-09-27T03:42:43.815Z,1017.33
2017-09-27T03:43:43.792Z,1017.27
2017-09-27T03:44:43.769Z,1017.29
2017-09-27T03:45:43.747Z,1017.27
2017-09-27T03:46:43.724Z,1017.26
2017-09-27T03:47:43.703Z,1017.26
2017-09-27T03:48:43.679Z,1017.25
2017-09-27T03:49:43.658Z,1017.26
2017-09-27T03:50:43.638Z,1017.24
2017-09-27T03:51:43.613Z,1017.24
2017-09-27T03:52:43.599Z,1017.18
2017-09-27T03:53:43.569Z,1017.21
2017-09-27T03:54:43.548Z,1017.24
2017-09-27T03:55:43.523Z,1017.24
2017-09-27T03:56:43.501Z,1017.27
2017-09-27T03:57:43.481Z,1017.27
2017-09-27T03:58:43.461Z,1017.26
2017-09-27T03:59:43.436Z,1017.28
2017-09-27T04:00:43.419Z,1017.27
2017-09-27T04:01:43.403Z,1017.29
2017-09-27T04:02:43.368Z,1017.3
2017-09-27T04:03:43.351Z,1017.31
2017-09-27T04:04:43.326Z,1017.34
2017-09-27T04:05:43.313Z,1017.36
2017-09-27T04:06:43.281Z,1017.38
2017-09-27T04:07:43.258Z,1017.37
2017-09-27T04:08:43.237Z,1017.36
2017-09-27T04:09:43.214Z,1017.39
2017-09-27T04:10:43.193Z,1017.36
2017-09-27T04:11:43.172Z,1017.37
2017-09-27T04:12:43.146Z,1017.37
2017-09-27T04:13:43.129Z,1017.31
2017-09-27T04:14:43.102Z,1017.35
2017-09-27T04:15:43.080Z,1017.36
2017-09-27T04:16:43.057Z,1017.32
2017-09-27T04:17:43.040Z,1017.3
2017-09-27T04:18:43.013Z,1017.27
2017-09-27T04:19:42.990Z,1017.29
2017-09-27T04:20:42.968Z,1017.3
2017-09-27T04:21:42.946Z,1017.31
2017-09-27T04:22:42.924Z,1017.28
2017-09-27T04:23:42.903Z,1017.33
2017-09-27T04:24:42.880Z,1017.31
2017-09-27T04:25:42.857Z,1017.29
2017-09-27T04:26:42.835Z,1017.25
2017-09-27T04:27:42.812Z,1017.28
2017-09-27T04:28:42.790Z,1017.29
2017-09-27T04:29:42.767Z,1017.32
2017-09-27T04:30:42.801Z,1017.3
2017-09-27T04:31:42.723Z,1017.36
2017-09-27T04:32:42.700Z,1017.34
2017-09-27T04:33:42.678Z,1017.33
2017-09-27T04:34:42.655Z,1017.33
2017-09-27T04:35:42.633Z,1017.36
2017-09-27T04:36:42.623Z,1017.35
2017-09-27T04:37:42.591Z,1017.35
2017-09-27T04:38:42.565Z,1017.35
2017-09-27T04:39:42.543Z,1017.3
2017-09-27T04:40:42.526Z,1017.32
2017-09-27T04:41:42.500Z,1017.29
2017-09-27T04:42:42.477Z,1017.29
2017-09-27T04:43:42.450Z,1017.35
2017-09-27T04:44:42.433Z,1017.32
2017-09-27T04:45:42.410Z,1017.36
2017-09-27T04:46:42.385Z,1017.35
2017-09-27T04:47:42.365Z,1017.36
2017-09-27T04:48:42.342Z,1017.35
2017-09-27T04:49:42.373Z,1017.4
2017-09-27T04:50:42.300Z,1017.42
2017-09-27T04:51:42.277Z,1017.39
2017-09-27T04:52:42.253Z,1017.38
2017-09-27T04:53:42.231Z,1017.37
2017-09-27T04:54:42.209Z,1017.4
2017-09-27T04:55:42.189Z,1017.41
2017-09-27T04:56:42.170Z,1017.4
2017-09-27T04:57:42.145Z,1017.42
2017-09-27T04:58:42.120Z,1017.41
2017-09-27T04:59:42.097Z,1017.39
2017-09-27T05:00:42.076Z,1017.38
2017-09-27T05:01:42.052Z,1017.34
2017-09-27T05:02:42.030Z,1017.32
2017-09-27T05:03:42.008Z,1017.33
2017-09-27T05:04:41.985Z,1017.38
2017-09-27T05:05:41.963Z,1017.38
2017-09-27T05:06:41.940Z,1017.44
2017-09-27T05:07:41.919Z,1017.4
2017-09-27T05:08:41.896Z,1017.4
2017-09-27T05:09:41.874Z,1017.36
2017-09-27T05:10:41.853Z,1017.43
2017-09-27T05:11:41.830Z,1017.47
2017-09-27T05:12:41.811Z,1017.49
2017-09-27T05:13:41.784Z,1017.47
2017-09-27T05:14:41.762Z,1017.49
2017-09-27T05:15:41.743Z,1017.48
2017-09-27T05:16:41.716Z,1017.48
2017-09-27T05:17:41.697Z,1017.48
2017-09-27T05:18:41.674Z,1017.53
2017-09-27T05:19:41.652Z,1017.49
2017-09-27T05:20:41.627Z,1017.55
2017-09-27T05:21:41.605Z,1017.54
2017-09-27T05:22:41.582Z,1017.47
2017-09-27T05:23:41.559Z,1017.52
2017-09-27T05:24:41.540Z,1017.5
2017-09-27T05:25:41.518Z,1017.53
2017-09-27T05:26:41.492Z,1017.55
2017-09-27T05:27:41.471Z,1017.55
2017-09-27T05:28:41.450Z,1017.55
2017-09-27T05:29:41.426Z,1017.54
2017-09-27T05:30:41.403Z,1017.58
2017-09-27T05:31:41.383Z,1017.58
2017-09-27T05:32:41.359Z,1017.58
2017-09-27T05:33:41.342Z,1017.57
2017-09-27T05:34:41.314Z,1017.61
2017-09-27T05:35:41.293Z,1017.6
2017-09-27T05:36:41.271Z,1017.59
2017-09-27T05:37:41.248Z,1017.59
2017-09-27T05:38:41.225Z,1017.63
2017-09-27T05:39:41.204Z,1017.6
2017-09-27T05:40:41.184Z,1017.61
2017-09-27T05:41:41.158Z,1017.64
2017-09-27T05:42:41.136Z,1017.66
2017-09-27T05:43:41.122Z,1017.61
2017-09-27T05:44:41.093Z,1017.64
2017-09-27T05:45:41.071Z,1017.63
2017-09-27T05:46:41.045Z,1017.65
2017-09-27T05:47:41.025Z,1017.72
2017-09-27T05:48:41.000Z,1017.76
2017-09-27T05:49:40.982Z,1017.73
2017-09-27T05:50:40.955Z,1017.74
2017-09-27T05:51:40.936Z,1017.77
2017-09-27T05:52:40.921Z,1017.76
2017-09-27T05:53:40.889Z,1017.75
2017-09-27T05:54:40.868Z,1017.76
2017-09-27T05:55:40.845Z,1017.76
2017-09-27T05:56:40.820Z,1017.8
2017-09-27T05:57:40.801Z,1017.75
2017-09-27T05:58:40.779Z,1017.72
2017-09-27T05:59:40.754Z,1017.73
2017-09-27T06:00:40.733Z,1017.72
2017-09-27T06:01:40.710Z,1017.74
2017-09-27T06:02:40.687Z,1017.69
2017-09-27T06:03:40.695Z,1017.67
2017-09-27T06:04:40.643Z,1017.77
2017-09-27T06:05:40.630Z,1017.69
2017-09-27T06:06:40.599Z,1017.74
2017-09-27T06:07:40.576Z,1017.72
2017-09-27T06:08:40.553Z,1017.76
2017-09-27T06:09:40.531Z,1017.71
2017-09-27T06:10:40.510Z,1017.72
2017-09-27T06:11:40.485Z,1017.74
2017-09-27T06:12:40.464Z,1017.7
2017-09-27T06:13:40.442Z,1017.71
2017-09-27T06:14:40.419Z,1017.73
2017-09-27T06:15:40.398Z,1017.73
2017-09-27T06:16:40.376Z,1017.76
2017-09-27T06:17:40.360Z,1017.74
2017-09-27T06:18:40.329Z,1017.76
2017-09-27T06:19:40.307Z,1017.76
2017-09-27T06:20:40.288Z,1017.74
2017-09-27T06:21:40.259Z,1017.76
2017-09-27T06:22:40.239Z,1017.73
2017-09-27T06:23:40.219Z,1017.72
2017-09-27T06:24:40.195Z,1017.73
2017-09-27T06:25:40.173Z,1017.73
2017-09-27T06:26:40.157Z,1017.76
2017-09-27T06:27:40.127Z,1017.76
2017-09-27T06:28:40.106Z,1017.74
2017-09-27T06:29:40.083Z,1017.76
2017-09-27T06:30:40.062Z,1017.77
2017-09-27T06:31:40.041Z,1017.76
2017-09-27T06:32:40.017Z,1017.77
2017-09-27T06:33:39.995Z,1017.8
2017-09-27T06:34:39.972Z,1017.79
2017-09-27T06:35:39.952Z,1017.76
2017-09-27T06:36:39.929Z,1017.75
2017-09-27T06:37:39.904Z,1017.76
2017-09-27T06:38:39.882Z,1017.75
2017-09-27T06:39:39.884Z,1017.77
2017-09-27T06:40:39.837Z,1017.75
2017-09-27T06:41:39.815Z,1017.77
2017-09-27T06:42:39.796Z,1017.77
2017-09-27T06:43:39.769Z,1017.8
2017-09-27T06:44:39.747Z,1017.78
2017-09-27T06:45:39.730Z,1017.85
2017-09-27T06:46:39.703Z,1017.86
2017-09-27T06:47:39.684Z,1017.82
2017-09-27T06:48:39.658Z,1017.82
2017-09-27T06:49:39.637Z,1017.76
2017-09-27T06:50:39.617Z,1017.76
2017-09-27T06:51:39.590Z,1017.77
2017-09-27T06:52:39.573Z,1017.8
2017-09-27T06:53:39.548Z,1017.72
2017-09-27T06:54:39.525Z,1017.74
2017-09-27T06:55:39.501Z,1017.79
2017-09-27T06:56:39.488Z,1017.81
2017-09-27T06:57:39.462Z,1017.8
2017-09-27T06:58:39.440Z,1017.83
2017-09-27T06:59:39.420Z,1017.83
2017-09-27T07:00:39.392Z,1017.84
2017-09-27T07:01:39.368Z,1017.78
2017-09-27T07:02:39.351Z,1017.8
2017-09-27T07:03:39.323Z,1017.86
2017-09-27T07:04:39.303Z,1017.86
2017-09-27T07:05:39.280Z,1017.86
2017-09-27T07:06:39.257Z,1017.85
2017-09-27T07:07:39.237Z,1017.85
2017-09-27T07:08:39.219Z,1017.89
2017-09-27T07:09:39.196Z,1017.87
2017-09-27T07:10:39.174Z,1017.85
2017-09-27T07:11:39.149Z,1017.9
2017-09-27T07:12:39.127Z,1017.85
2017-09-27T07:13:39.104Z,1017.85
2017-09-27T07:14:39.084Z,1017.84
2017-09-27T07:15:39.062Z,1017.84
2017-09-27T07:16:39.038Z,1017.84
2017-09-27T07:17:39.019Z,1017.89
2017-09-27T07:18:39.003Z,1017.86
2017-09-27T07:19:38.977Z,1017.88
2017-09-27T07:20:38.949Z,1017.9
2017-09-27T07:21:38.930Z,1017.91
2017-09-27T07:22:38.905Z,1017.95
2017-09-27T07:23:38.893Z,1017.93
2017-09-27T07:24:38.864Z,1017.92
2017-09-27T07:25:38.848Z,1017.93
2017-09-27T07:26:38.822Z,1017.92
2017-09-27T07:27:38.798Z,1017.93
2017-09-27T07:28:38.776Z,1017.95
2017-09-27T07:29:38.752Z,1017.96
2017-09-27T07:30:38.731Z,1017.96
2017-09-27T07:31:38.706Z,1018
2017-09-27T07:32:38.688Z,1018
2017-09-27T07:33:38.660Z,1018
2017-09-27T07:34:38.644Z,1017.97
2017-09-27T07:35:38.616Z,1018.01
2017-09-27T07:36:38.611Z,1018.04
2017-09-27T07:37:38.574Z,1018.02
2017-09-27T07:38:38.552Z,1018.08
2017-09-27T07:39:38.530Z,1018.05
2017-09-27T07:40:38.507Z,1018.06
2017-09-27T07:41:38.486Z,1018.02
2017-09-27T07:42:38.469Z,1018.07
2017-09-27T07:43:38.442Z,1018.09
2017-09-27T07:44:38.420Z,1018.11
2017-09-27T07:45:38.397Z,1018.12
2017-09-27T07:46:38.375Z,1018.05
2017-09-27T07:47:38.355Z,1018.12
2017-09-27T07:48:38.331Z,1018.07
2017-09-27T07:49:38.310Z,1018.09
2017-09-27T07:50:38.287Z,1018.06
2017-09-27T07:51:38.266Z,1018.08
2017-09-27T07:52:38.243Z,1018.1
2017-09-27T07:53:38.228Z,1018.09
2017-09-27T07:54:38.200Z,1018.13
2017-09-27T07:55:38.177Z,1018.14
2017-09-27T07:56:38.162Z,1018.15
2017-09-27T07:57:38.135Z,1018.12
2017-09-27T07:58:38.109Z,1018.13
2017-09-27T07:59:38.093Z,1018.13
2017-09-27T08:00:38.067Z,1018.12
2017-09-27T08:01:38.046Z,1018.13
2017-09-27T08:02:38.024Z,1018.11
2017-09-27T08:03:38.006Z,1018.11
2017-09-27T08:04:37.980Z,1018.09
2017-09-27T08:05:37.957Z,1018.12
2017-09-27T08:06:37.936Z,1018.14
2017-09-27T08:07:37.917Z,1018.15
2017-09-27T08:08:37.895Z,1018.18
2017-09-27T08:09:37.870Z,1018.11
2017-09-27T08:10:37.853Z,1018.12
2017-09-27T08:11:37.826Z,1018.19
2017-09-27T08:12:37.805Z,1018.17
2017-09-27T08:13:37.783Z,1018.2
2017-09-27T08:14:37.763Z,1018.17
2017-09-27T08:15:37.736Z,1018.18
2017-09-27T08:16:37.717Z,1018.18
2017-09-27T08:17:37.695Z,1018.19
2017-09-27T08:18:37.673Z,1018.21
2017-09-27T08:19:37.651Z,1018.23
2017-09-27T08:20:37.629Z,1018.19
2017-09-27T08:21:37.610Z,1018.2
2017-09-27T08:22:37.585Z,1018.24
2017-09-27T08:23:37.572Z,1018.25
2017-09-27T08:24:37.543Z,1018.21
2017-09-27T08:25:37.521Z,1018.25
2017-09-27T08:26:37.499Z,1018.22
2017-09-27T08:27:37.480Z,1018.24
2017-09-27T08:28:37.457Z,1018.24
2017-09-27T08:29:37.433Z,1018.21
2017-09-27T08:30:37.414Z,1018.24
2017-09-27T08:31:37.393Z,1018.21
2017-09-27T08:32:37.579Z,1018.23
2017-09-27T08:33:37.351Z,1018.29
2017-09-27T08:34:37.334Z,1018.24
2017-09-27T08:35:37.310Z,1018.26
2017-09-27T08:36:37.284Z,1018.21
2017-09-27T08:37:37.266Z,1018.35
2017-09-27T08:38:37.296Z,1018.33
2017-09-27T08:39:37.218Z,1018.27
2017-09-27T08:40:37.207Z,1018.24
2017-09-27T08:41:37.181Z,1018.23
2017-09-27T08:42:37.206Z,1018.28
2017-09-27T08:43:37.139Z,1018.25
2017-09-27T08:44:37.117Z,1018.22
2017-09-27T08:45:37.092Z,1018.26
2017-09-27T08:46:37.072Z,1018.26
2017-09-27T08:47:37.048Z,1018.26
2017-09-27T08:48:37.026Z,1018.2
2017-09-27T08:49:37.009Z,1018.2
2017-09-27T08:50:36.989Z,1018.24
2017-09-27T08:51:36.963Z,1018.24
2017-09-27T08:52:36.943Z,1018.21
2017-09-27T08:53:36.926Z,1018.22
2017-09-27T08:54:36.901Z,1018.27
2017-09-27T08:55:36.881Z,1018.26
2017-09-27T08:56:36.860Z,1018.2
2017-09-27T08:57:36.844Z,1018.21
2017-09-27T08:58:36.825Z,1018.2
2017-09-27T08:59:36.793Z,1018.19
2017-09-27T09:00:36.778Z,1018.15
2017-09-27T09:01:36.758Z,1018.17
2017-09-27T09:02:36.738Z,1018.16
2017-09-27T09:03:36.715Z,1018.12
2017-09-27T09:04:36.700Z,1018.08
2017-09-27T09:05:36.674Z,1018.13
2017-09-27T09:06:36.655Z,1018.18
2017-09-27T09:07:36.638Z,1018.13
2017-09-27T09:08:36.623Z,1018.19
2017-09-27T09:09:36.604Z,1018.12
2017-09-27T09:10:36.580Z,1018.17
2017-09-27T09:11:36.566Z,1018.18
2017-09-27T09:12:36.537Z,1018.12
2017-09-27T09:13:36.527Z,1018.16
2017-09-27T09:14:36.514Z,1018.14
2017-09-27T09:15:36.486Z,1018.14
2017-09-27T09:16:36.468Z,1018.2
2017-09-27T09:17:36.449Z,1018.15
2017-09-27T09:18:36.432Z,1018.15
2017-09-27T09:19:36.416Z,1018.15
2017-09-27T09:20:36.398Z,1018.13
2017-09-27T09:21:36.384Z,1018.22
2017-09-27T09:22:36.366Z,1018.16
2017-09-27T09:23:36.347Z,1018.21
2017-09-27T09:24:36.335Z,1018.23
2017-09-27T09:25:36.311Z,1018.24
2017-09-27T09:26:36.298Z,1018.24
2017-09-27T09:27:36.282Z,1018.16
2017-09-27T09:28:36.264Z,1018.22
2017-09-27T09:29:36.254Z,1018.23
2017-09-27T09:30:36.231Z,1018.25
2017-09-27T09:31:36.214Z,1018.2
2017-09-27T09:32:36.199Z,1018.25
2017-09-27T09:33:36.182Z,1018.2
2017-09-27T09:34:36.167Z,1018.19
2017-09-27T09:35:36.153Z,1018.15
2017-09-27T09:36:36.136Z,1018.16
2017-09-27T09:37:36.121Z,1018.12
2017-09-27T09:38:36.108Z,1018.17
2017-09-27T09:39:36.089Z,1018.15
2017-09-27T09:40:36.077Z,1018.11
2017-09-27T09:41:36.062Z,1018.13
2017-09-27T09:42:36.050Z,1018.09
2017-09-27T09:43:36.040Z,1018.09
2017-09-27T09:44:36.022Z,1018.09
2017-09-27T09:45:36.009Z,1018.09
2017-09-27T09:46:35.992Z,1018.06
2017-09-27T09:47:35.977Z,1018.05
2017-09-27T09:48:35.964Z,1018.07
2017-09-27T09:49:35.953Z,1018.04
2017-09-27T09:50:35.940Z,1018.06
2017-09-27T09:51:35.925Z,1018.05
2017-09-27T09:52:35.908Z,1018.07
2017-09-27T09:53:35.892Z,1018.03
2017-09-27T09:54:35.882Z,1017.99
2017-09-27T09:55:35.869Z,1018.03
2017-09-27T09:56:35.845Z,1018.02
2017-09-27T09:57:35.831Z,1018.07
2017-09-27T09:58:35.822Z,1018.07
2017-09-27T09:59:35.799Z,1018.02
2017-09-27T10:00:35.783Z,1018.04
2017-09-27T10:01:35.769Z,1018.06
2017-09-27T10:02:35.751Z,1018.04
2017-09-27T10:03:35.735Z,1018.07
2017-09-27T10:04:35.718Z,1018.04
2017-09-27T10:05:35.706Z,1018.01
2017-09-27T10:06:35.684Z,1018.01
2017-09-27T10:07:35.671Z,1017.99
2017-09-27T10:08:35.653Z,1018.02
2017-09-27T10:09:35.633Z,1018.03
2017-09-27T10:10:35.617Z,1018.04
2017-09-27T10:11:35.599Z,1018.05
2017-09-27T10:12:35.583Z,1018.05
2017-09-27T10:13:35.565Z,1018.04
2017-09-27T10:14:35.554Z,1018.02
2017-09-27T10:15:35.530Z,1018.03
2017-09-27T10:16:35.512Z,1017.98
2017-09-27T10:17:35.497Z,1018
2017-09-27T10:18:35.479Z,1017.97
2017-09-27T10:19:35.459Z,1017.97
2017-09-27T10:20:35.441Z,1017.96
2017-09-27T10:21:35.426Z,1017.93
2017-09-27T10:22:35.409Z,1017.98
2017-09-27T10:23:35.387Z,1017.95
2017-09-27T10:24:35.370Z,1017.99
2017-09-27T10:25:35.365Z,1018
2017-09-27T10:26:35.334Z,1017.95
2017-09-27T10:27:35.315Z,1017.93
2017-09-27T10:28:35.320Z,1017.93
2017-09-27T10:29:35.278Z,1017.89
2017-09-27T10:30:35.259Z,1017.95
2017-09-27T10:31:35.240Z,1017.95
2017-09-27T10:32:35.225Z,1017.94
2017-09-27T10:33:35.207Z,1017.9
2017-09-27T10:34:35.185Z,1017.91
2017-09-27T10:35:35.167Z,1017.9
2017-09-27T10:36:35.146Z,1017.91
2017-09-27T10:37:35.128Z,1017.89
2017-09-27T10:38:35.109Z,1017.87
2017-09-27T10:39:35.093Z,1017.85
2017-09-27T10:40:35.071Z,1017.89
2017-09-27T10:41:35.057Z,1017.93
2017-09-27T10:42:35.034Z,1017.88
2017-09-27T10:43:35.013Z,1017.88
2017-09-27T10:44:34.994Z,1017.9
2017-09-27T10:45:34.974Z,1017.86
2017-09-27T10:46:34.964Z,1017.82
2017-09-27T10:47:34.939Z,1017.87
2017-09-27T10:48:34.919Z,1017.87
2017-09-27T10:49:34.900Z,1017.83
2017-09-27T10:50:34.881Z,1017.89
2017-09-27T10:51:34.863Z,1017.87
2017-09-27T10:52:34.848Z,1017.79
2017-09-27T10:53:34.823Z,1017.82
2017-09-27T10:54:34.803Z,1017.77
2017-09-27T10:55:34.782Z,1017.78
2017-09-27T10:56:34.763Z,1017.82
2017-09-27T10:57:34.747Z,1017.8
2017-09-27T10:58:34.726Z,1017.83
2017-09-27T10:59:34.713Z,1017.79
2017-09-27T11:00:34.692Z,1017.79
2017-09-27T11:01:34.669Z,1017.79
2017-09-27T11:02:34.656Z,1017.78
2017-09-27T11:03:34.649Z,1017.77
2017-09-27T11:04:34.614Z,1017.83
2017-09-27T11:05:34.594Z,1017.77
2017-09-27T11:06:34.572Z,1017.79
2017-09-27T11:07:34.552Z,1017.75
2017-09-27T11:08:34.534Z,1017.77
2017-09-27T11:09:34.516Z,1017.76
2017-09-27T11:10:34.495Z,1017.77
2017-09-27T11:11:34.517Z,1017.74
2017-09-27T11:12:34.456Z,1017.76
2017-09-27T11:13:34.437Z,1017.75
2017-09-27T11:14:34.419Z,1017.72
2017-09-27T11:15:34.399Z,1017.73
2017-09-27T11:16:34.379Z,1017.74
2017-09-27T11:17:34.390Z,1017.77
2017-09-27T11:18:34.338Z,1017.77
2017-09-27T11:19:34.323Z,1017.73
2017-09-27T11:20:34.304Z,1017.73
2017-09-27T11:21:34.279Z,1017.78
2017-09-27T11:22:34.262Z,1017.7
2017-09-27T11:23:34.243Z,1017.69
2017-09-27T11:24:34.221Z,1017.7
2017-09-27T11:25:34.218Z,1017.65
2017-09-27T11:26:34.183Z,1017.73
2017-09-27T11:27:34.163Z,1017.69
2017-09-27T11:28:34.143Z,1017.66
2017-09-27T11:29:34.129Z,1017.68
2017-09-27T11:30:34.158Z,1017.61
2017-09-27T11:31:34.089Z,1017.67
2017-09-27T11:32:34.069Z,1017.67
2017-09-27T11:33:34.043Z,1017.65
2017-09-27T11:34:34.025Z,1017.68
2017-09-27T11:35:34.009Z,1017.57
2017-09-27T11:36:34.001Z,1017.65
2017-09-27T11:37:33.967Z,1017.64
2017-09-27T11:38:33.949Z,1017.58
2017-09-27T11:39:33.937Z,1017.62
2017-09-27T11:40:33.906Z,1017.56
2017-09-27T11:41:33.905Z,1017.55
2017-09-27T11:42:33.875Z,1017.58
2017-09-27T11:43:33.846Z,1017.5
2017-09-27T11:44:33.831Z,1017.55
2017-09-27T11:45:33.806Z,1017.54
2017-09-27T11:46:33.788Z,1017.5
2017-09-27T11:47:33.774Z,1017.51
2017-09-27T11:48:33.754Z,1017.47
2017-09-27T11:49:33.731Z,1017.45
2017-09-27T11:50:33.714Z,1017.43
2017-09-27T11:51:33.746Z,1017.4
2017-09-27T11:52:33.679Z,1017.43
2017-09-27T11:53:33.659Z,1017.4
2017-09-27T11:54:33.643Z,1017.39
2017-09-27T11:55:33.617Z,1017.34
2017-09-27T11:56:33.590Z,1017.37
2017-09-27T11:57:33.571Z,1017.38
2017-09-27T11:58:33.550Z,1017.38
2017-09-27T11:59:33.538Z,1017.33
2017-09-27T12:00:33.515Z,1017.37
2017-09-27T12:01:33.500Z,1017.31
2017-09-27T12:02:33.481Z,1017.32
2017-09-27T12:03:33.483Z,1017.38
2017-09-27T12:04:33.454Z,1017.29
2017-09-27T12:05:33.418Z,1017.29
2017-09-27T12:06:33.397Z,1017.27
2017-09-27T12:07:33.374Z,1017.27
2017-09-27T12:08:33.357Z,1017.26